Time;durP1;ratioP1;P1;durP2;ratioP2;P2;SDS_P1;SDS_P2;PMS_P1;PMS_P2;Temp;Humidity;BMP_temperature;BMP_pressure;BME280_temperature;BME280_humidity;BME280_pressure;Samples;Min_cycle;Max_cycle;Signal;HPM_P1;HPM_P2
2021/10/26 00:01:15;;;;;;;13.30;8.38;;;12.00;99.90;;;;;;5032549;28;20068;-70
2021/10/26 00:04:20;;;;;;;11.43;6.68;;;12.00;99.90;;;;;;5032728;28;20052;-70
2021/10/26 00:07:24;;;;;;;13.35;6.50;;;11.90;99.90;;;;;;5032609;28;20048;-69
2021/10/26 00:10:28;;;;;;;12.13;6.18;;;11.90;99.90;;;;;;5032626;28;20494;-70
2021/10/26 00:13:32;;;;;;;11.15;6.57;;;11.90;99.90;;;;;;5032496;28;20053;-69
2021/10/26 00:16:36;;;;;;;12.65;6.30;;;11.90;99.90;;;;;;5032109;28;20044;-69
2021/10/26 00:19:40;;;;;;;9.52;5.70;;;11.90;99.90;;;;;;5031937;28;20105;-69
2021/10/26 00:22:44;;;;;;;11.63;5.53;;;11.90;99.90;;;;;;5032466;28;20041;-70
2021/10/26 00:25:49;;;;;;;11.68;5.57;;;11.90;99.90;;;;;;5032166;28;20506;-70
2021/10/26 00:28:54;;;;;;;13.38;6.38;;;11.80;99.90;;;;;;5031886;28;20054;-70
2021/10/26 00:31:58;;;;;;;11.65;6.03;;;11.70;99.90;;;;;;5031947;28;20309;-70
2021/10/26 00:35:04;;;;;;;11.02;5.97;;;11.60;99.90;;;;;;5032256;28;20052;-69
2021/10/26 00:38:09;;;;;;;8.52;6.32;;;11.50;99.90;;;;;;5030851;28;20048;-69
2021/10/26 00:41:14;;;;;;;16.05;8.23;;;11.50;99.90;;;;;;5031935;28;20053;-69
2021/10/26 00:44:18;;;;;;;13.82;7.18;;;11.40;99.90;;;;;;5030854;28;20048;-69
2021/10/26 00:47:22;;;;;;;10.00;6.30;;;11.30;99.90;;;;;;5030988;28;20049;-70
2021/10/26 00:50:26;;;;;;;10.95;7.15;;;11.30;99.90;;;;;;5030906;28;20042;-69
2021/10/26 00:53:33;;;;;;;14.45;7.97;;;11.20;99.90;;;;;;5042180;28;20388;-69
2021/10/26 00:56:38;;;;;;;14.52;7.88;;;11.20;99.90;;;;;;5032048;28;20383;-69
2021/10/26 00:59:42;;;;;;;14.35;6.70;;;11.20;99.90;;;;;;5031675;28;20048;-69
2021/10/26 01:02:47;;;;;;;12.25;7.03;;;11.10;99.90;;;;;;5031027;28;20036;-69
2021/10/26 01:06:04;;;;;;;13.98;7.60;;;11.10;99.90;;;;;;5042254;28;20048;-69
2021/10/26 01:09:09;;;;;;;12.27;7.30;;;11.10;99.90;;;;;;5041930;28;20045;-69
2021/10/26 01:12:14;;;;;;;16.58;7.68;;;11.00;99.90;;;;;;5041887;28;20044;-70
2021/10/26 01:15:18;;;;;;;10.68;7.78;;;10.90;99.90;;;;;;5030748;28;20049;-69
2021/10/26 01:18:22;;;;;;;12.98;8.43;;;10.90;99.90;;;;;;5031103;28;20060;-69
2021/10/26 01:21:26;;;;;;;15.85;8.57;;;11.00;99.90;;;;;;5030614;28;20064;-69
2021/10/26 01:24:31;;;;;;;12.70;8.43;;;11.00;99.90;;;;;;5030073;28;20037;-70
2021/10/26 01:27:38;;;;;;;13.82;8.02;;;11.00;99.90;;;;;;5029720;28;20388;-69
2021/10/26 01:30:42;;;;;;;16.23;9.00;;;11.00;99.90;;;;;;5030227;28;20395;-70
2021/10/26 01:34:10;;;;;;;12.20;8.02;;;11.00;99.90;;;;;;5022002;28;20056;-69
2021/10/26 01:37:16;;;;;;;13.20;8.63;;;10.90;99.90;;;;;;5030351;28;20048;-69
2021/10/26 01:40:22;;;;;;;14.32;9.95;;;10.90;99.90;;;;;;5041362;28;20045;-69
2021/10/26 01:43:27;;;;;;;14.63;7.03;;;10.80;99.90;;;;;;5041446;28;20043;-69
2021/10/26 01:46:33;;;;;;;16.27;6.80;;;10.70;99.90;;;;;;5029831;28;20236;-69
2021/10/26 01:49:37;;;;;;;15.20;7.60;;;10.70;99.90;;;;;;5029508;28;20049;-69
2021/10/26 01:52:42;;;;;;;14.18;7.07;;;10.70;99.90;;;;;;5029985;28;20040;-69
2021/10/26 01:55:46;;;;;;;12.40;7.45;;;10.70;99.90;;;;;;5030954;28;20052;-69
2021/10/26 01:58:50;;;;;;;11.35;7.10;;;10.70;99.90;;;;;;5029487;28;20052;-69
2021/10/26 02:01:58;;;;;;;11.95;7.13;;;10.70;99.90;;;;;;5029837;28;20049;-69
2021/10/26 02:05:10;;;;;;;16.52;7.60;;;10.70;99.90;;;;;;5030604;28;20491;-69
2021/10/26 02:08:14;;;;;;;16.50;7.10;;;10.70;99.90;;;;;;5041026;28;20045;-69
2021/10/26 02:11:18;;;;;;;20.40;8.50;;;10.60;99.90;;;;;;5041520;28;20041;-69
2021/10/26 02:14:24;;;;;;;12.23;7.65;;;10.60;99.90;;;;;;5029695;28;20068;-69
2021/10/26 02:17:29;;;;;;;14.05;7.15;;;10.60;99.90;;;;;;5041406;28;20040;-69
2021/10/26 02:20:35;;;;;;;11.63;7.05;;;10.60;99.90;;;;;;5041341;28;20044;-69
2021/10/26 02:23:41;;;;;;;11.93;6.65;;;10.60;99.90;;;;;;5030376;28;20404;-69
2021/10/26 02:26:45;;;;;;;13.40;6.68;;;10.60;99.90;;;;;;5030695;28;20052;-69
2021/10/26 02:29:49;;;;;;;13.80;7.45;;;10.60;99.90;;;;;;5029395;28;20049;-69
2021/10/26 02:32:53;;;;;;;12.25;6.97;;;10.60;99.90;;;;;;5041448;28;20049;-69
2021/10/26 02:35:58;;;;;;;8.93;6.60;;;10.60;99.90;;;;;;5041069;28;20052;-69
2021/10/26 02:39:04;;;;;;;14.02;7.22;;;10.60;99.90;;;;;;5028888;28;20040;-69
2021/10/26 02:42:09;;;;;;;14.02;8.15;;;10.50;99.90;;;;;;5041039;28;20048;-70
2021/10/26 02:45:13;;;;;;;14.23;7.70;;;10.40;99.90;;;;;;5028914;28;20056;-69
2021/10/26 02:48:21;;;;;;;13.70;8.50;;;10.40;99.90;;;;;;5028708;28;20048;-69
2021/10/26 02:51:25;;;;;;;18.55;9.38;;;10.40;99.90;;;;;;5029340;28;20052;-69
2021/10/26 02:54:29;;;;;;;16.20;8.88;;;10.30;99.90;;;;;;5040736;28;20053;-69
2021/10/26 02:57:34;;;;;;;15.70;9.02;;;10.30;99.90;;;;;;5040821;28;20044;-69
2021/10/26 03:00:38;;;;;;;14.98;8.88;;;10.30;99.90;;;;;;5029332;28;20064;-69
2021/10/26 03:03:47;;;;;;;13.70;9.02;;;10.30;99.90;;;;;;5040732;28;20052;-69
2021/10/26 03:06:52;;;;;;;19.95;9.55;;;10.30;99.90;;;;;;5040975;28;20060;-69
2021/10/26 03:09:57;;;;;;;22.00;13.27;;;10.30;99.90;;;;;;5040193;28;20070;-69
2021/10/26 03:13:01;;;;;;;15.25;8.40;;;10.20;99.90;;;;;;5040524;28;20044;-69
2021/10/26 03:16:06;;;;;;;15.07;9.15;;;10.10;99.90;;;;;;5028917;28;20124;-69
2021/10/26 03:19:10;;;;;;;24.60;11.80;;;10.00;99.90;;;;;;5028605;28;20053;-69
2021/10/26 03:22:19;;;;;;;20.75;11.90;;;10.00;99.90;;;;;;5040326;28;20053;-69
2021/10/26 03:25:24;;;;;;;26.20;13.45;;;9.90;99.90;;;;;;5028617;28;20072;-69
2021/10/26 03:28:28;;;;;;;27.55;13.45;;;9.90;99.90;;;;;;5028562;28;20503;-69
2021/10/26 03:31:32;;;;;;;20.88;11.55;;;10.00;99.90;;;;;;5028955;28;20032;-69
2021/10/26 03:34:43;;;;;;;22.45;11.32;;;10.00;99.90;;;;;;5029285;28;20053;-69
2021/10/26 03:37:47;;;;;;;19.50;9.77;;;10.00;99.90;;;;;;5040157;28;20400;-69
2021/10/26 03:40:52;;;;;;;14.90;9.35;;;10.00;99.90;;;;;;5028811;28;20056;-69
2021/10/26 03:43:56;;;;;;;18.38;10.55;;;10.00;99.90;;;;;;5028505;28;20064;-70
2021/10/26 03:47:01;;;;;;;13.07;8.07;;;10.00;99.90;;;;;;5040117;28;20044;-69
2021/10/26 03:50:05;;;;;;;11.95;8.45;;;10.00;99.90;;;;;;5028408;28;20048;-69
2021/10/26 03:53:09;;;;;;;15.93;7.90;;;9.90;99.90;;;;;;5032405;28;20044;-69
2021/10/26 03:56:14;;;;;;;11.55;8.10;;;10.00;99.90;;;;;;5032258;28;20423;-69
2021/10/26 03:59:18;;;;;;;18.05;8.00;;;10.00;99.90;;;;;;5032072;28;20048;-69
2021/10/26 04:02:28;;;;;;;15.18;7.45;;;10.00;99.90;;;;;;5043505;28;20044;-69
2021/10/26 04:05:44;;;;;;;20.83;8.05;;;10.10;99.90;;;;;;5043416;28;20036;-69
2021/10/26 04:09:04;;;;;;;15.45;7.57;;;10.00;99.90;;;;;;5031309;28;20494;-69
2021/10/26 04:12:24;;;;;;;10.65;6.63;;;9.90;99.90;;;;;;5032041;28;20040;-70
2021/10/26 04:15:29;;;;;;;17.08;7.75;;;9.90;99.90;;;;;;5031797;28;20037;-69
2021/10/26 04:18:33;;;;;;;14.60;7.97;;;9.90;99.90;;;;;;5031370;28;20033;-69
2021/10/26 04:21:38;;;;;;;12.88;8.45;;;10.00;99.90;;;;;;5031758;28;20041;-69
2021/10/26 04:24:43;;;;;;;16.92;8.68;;;10.00;99.90;;;;;;5043030;28;20044;-69
2021/10/26 04:27:47;;;;;;;15.23;9.10;;;10.00;99.90;;;;;;5031762;28;20254;-70
2021/10/26 04:30:51;;;;;;;17.27;8.93;;;9.90;99.90;;;;;;5029682;28;20057;-69
2021/10/26 04:33:57;;;;;;;17.33;9.30;;;9.80;99.90;;;;;;5043171;28;20032;-69
2021/10/26 04:37:02;;;;;;;14.27;8.27;;;9.80;99.90;;;;;;5031294;28;20037;-69
2021/10/26 04:40:06;;;;;;;19.98;9.35;;;9.70;99.90;;;;;;5031151;28;20068;-69
2021/10/26 04:43:13;;;;;;;15.85;9.18;;;9.70;99.90;;;;;;5030750;28;20045;-69
2021/10/26 04:46:18;;;;;;;22.98;11.93;;;9.60;99.90;;;;;;5030958;28;20048;-69
2021/10/26 04:49:22;;;;;;;21.67;11.55;;;9.60;99.90;;;;;;5042766;28;20068;-69
2021/10/26 04:52:26;;;;;;;21.67;12.23;;;9.60;99.90;;;;;;5042929;28;20056;-69
2021/10/26 04:55:30;;;;;;;20.83;11.18;;;9.60;99.90;;;;;;5031508;28;20052;-69
2021/10/26 04:58:37;;;;;;;20.58;11.90;;;9.60;99.90;;;;;;5042183;28;20044;-69
2021/10/26 05:01:42;;;;;;;19.17;12.13;;;9.50;99.90;;;;;;5042156;28;20044;-69
2021/10/26 05:04:46;;;;;;;19.90;10.27;;;9.40;99.90;;;;;;5031012;28;20068;-69
2021/10/26 05:07:50;;;;;;;14.82;8.57;;;9.40;99.90;;;;;;5031423;28;20391;-69
2021/10/26 05:10:55;;;;;;;18.60;11.20;;;9.40;99.90;;;;;;5042450;28;20042;-69
2021/10/26 05:14:00;;;;;;;20.42;10.65;;;9.30;99.90;;;;;;5030830;28;20037;-69
2021/10/26 05:17:24;;;;;;;23.92;11.55;;;9.30;99.90;;;;;;5031571;28;20056;-69
2021/10/26 05:20:48;;;;;;;22.25;11.45;;;9.40;99.90;;;;;;5031546;28;20036;-69
2021/10/26 05:24:18;;;;;;;15.25;9.90;;;9.40;99.90;;;;;;5026858;28;20036;-69
2021/10/26 05:27:31;;;;;;;17.90;11.53;;;9.40;99.90;;;;;;5030537;28;20041;-69
2021/10/26 05:30:35;;;;;;;20.38;10.32;;;9.40;99.90;;;;;;5041689;28;20392;-69
2021/10/26 05:33:39;;;;;;;18.60;10.63;;;9.50;99.90;;;;;;5030523;28;20407;-69
2021/10/26 05:36:43;;;;;;;19.30;8.85;;;9.60;99.90;;;;;;5025230;28;20056;-69
2021/10/26 05:39:48;;;;;;;18.67;8.98;;;9.60;99.90;;;;;;5019451;28;20041;-69
2021/10/26 05:42:52;;;;;;;17.05;8.07;;;9.60;99.90;;;;;;5011752;28;20052;-69
2021/10/26 05:45:57;;;;;;;14.95;7.68;;;9.60;99.90;;;;;;5011030;28;20049;-70
2021/10/26 05:49:01;;;;;;;21.20;10.05;;;9.70;99.90;;;;;;5011390;28;20061;-69
2021/10/26 05:52:05;;;;;;;18.42;9.60;;;9.70;99.90;;;;;;5011384;28;20044;-69
2021/10/26 05:55:09;;;;;;;20.40;7.65;;;9.70;99.90;;;;;;5011236;28;20053;-69
2021/10/26 05:58:14;;;;;;;11.43;6.57;;;9.80;99.90;;;;;;5009845;28;20053;-70
2021/10/26 06:01:17;;;;;;;15.93;6.38;;;9.80;99.90;;;;;;5012012;28;20048;-70
2021/10/26 06:04:23;;;;;;;12.80;6.82;;;9.80;99.90;;;;;;5018330;28;20051;-70
2021/10/26 06:07:31;;;;;;;16.90;7.72;;;9.90;99.90;;;;;;5025445;28;20528;-70
2021/10/26 06:10:44;;;;;;;14.65;7.78;;;9.90;99.90;;;;;;5012691;28;20041;-70
2021/10/26 06:13:59;;;;;;;19.70;10.15;;;9.80;99.90;;;;;;5014780;28;20334;-70
2021/10/26 06:17:04;;;;;;;16.02;9.70;;;9.70;99.90;;;;;;5021264;28;20037;-69
2021/10/26 06:20:11;;;;;;;14.68;8.95;;;9.60;99.90;;;;;;5021830;28;20050;-70
2021/10/26 06:23:16;;;;;;;14.90;8.38;;;9.60;99.90;;;;;;5028941;28;20032;-70
2021/10/26 06:26:21;;;;;;;17.35;9.63;;;9.60;99.90;;;;;;5024750;28;20041;-70
2021/10/26 06:29:36;;;;;;;18.08;9.60;;;9.70;99.90;;;;;;5027738;28;20052;-70
2021/10/26 06:32:59;;;;;;;21.73;9.15;;;9.80;99.90;;;;;;5025807;28;20030;-70
2021/10/26 06:36:23;;;;;;;17.02;9.07;;;9.90;99.90;;;;;;5029380;28;20043;-70
2021/10/26 06:39:28;;;;;;;15.48;8.55;;;10.10;99.90;;;;;;5030052;28;20057;-70
2021/10/26 06:42:35;;;;;;;16.35;8.70;;;10.30;99.90;;;;;;5045578;28;20040;-70
2021/10/26 06:45:58;;;;;;;16.35;9.73;;;10.50;99.90;;;;;;5035035;28;20052;-70
2021/10/26 06:49:21;;;;;;;12.32;7.63;;;10.80;99.90;;;;;;5022242;28;20376;-70
2021/10/26 06:52:44;;;;;;;14.27;8.60;;;11.10;99.90;;;;;;5022929;28;20045;-70
2021/10/26 06:56:13;;;;;;;21.77;9.95;;;11.40;99.90;;;;;;5038197;28;20060;-70
2021/10/26 06:59:36;;;;;;;13.70;8.73;;;11.80;99.90;;;;;;5036018;28;20044;-70
2021/10/26 07:03:02;;;;;;;16.90;8.73;;;12.20;99.90;;;;;;5039859;28;20052;-70
2021/10/26 07:06:26;;;;;;;14.05;9.50;;;12.50;99.90;;;;;;5030465;28;20044;-70
2021/10/26 07:09:36;;;;;;;14.52;8.50;;;12.40;99.90;;;;;;5031833;28;20045;-70
2021/10/26 07:12:54;;;;;;;15.68;8.25;;;12.60;99.90;;;;;;5029321;28;20491;-70
2021/10/26 07:15:58;;;;;;;12.88;8.00;;;12.80;99.90;;;;;;5031989;28;20049;-70
2021/10/26 07:19:03;;;;;;;12.23;7.15;;;13.10;99.90;;;;;;5029460;28;20052;-70
2021/10/26 07:22:27;;;;;;;12.98;7.28;;;13.20;99.90;;;;;;5034470;28;20056;-70
2021/10/26 07:25:54;;;;;;;16.83;7.75;;;13.90;99.90;;;;;;5031617;28;20060;-70
2021/10/26 07:28:58;;;;;;;13.00;7.60;;;14.80;99.90;;;;;;5040149;28;20497;-70
2021/10/26 07:32:03;;;;;;;13.38;7.32;;;15.00;99.90;;;;;;5042861;28;20498;-70
2021/10/26 07:35:08;;;;;;;37.55;25.63;;;15.20;99.90;;;;;;5038269;28;20486;-70
2021/10/26 07:38:16;;;;;;;26.67;15.88;;;15.10;99.90;;;;;;5028752;28;20040;-70
2021/10/26 07:41:21;;;;;;;26.20;15.52;;;15.10;99.90;;;;;;5013171;28;20037;-70
2021/10/26 07:44:50;;;;;;;24.52;15.98;;;15.30;99.90;;;;;;5022599;28;20048;-70
2021/10/26 07:48:00;;;;;;;18.95;10.18;;;15.60;99.90;;;;;;5034105;28;20056;-70
2021/10/26 07:51:04;;;;;;;14.93;7.70;;;15.70;99.90;;;;;;5033995;28;20028;-70
2021/10/26 07:54:09;;;;;;;9.48;6.53;;;15.50;99.90;;;;;;5026912;28;20060;-70
2021/10/26 07:57:14;;;;;;;12.77;7.43;;;15.50;99.90;;;;;;5029402;28;20053;-70
2021/10/26 08:00:18;;;;;;;12.68;6.88;;;15.40;99.90;;;;;;5034873;28;20048;-70
2021/10/26 08:03:28;;;;;;;14.32;7.13;;;15.60;99.90;;;;;;5030878;28;20044;-71
2021/10/26 08:06:40;;;;;;;12.40;7.40;;;15.90;99.90;;;;;;5033686;28;20049;-71
2021/10/26 08:09:45;;;;;;;15.98;8.20;;;16.20;99.90;;;;;;5039879;28;20044;-70
2021/10/26 08:12:49;;;;;;;14.73;8.45;;;16.40;99.90;;;;;;5039735;28;20048;-71
2021/10/26 08:15:53;;;;;;;15.02;8.27;;;16.50;99.90;;;;;;5034080;28;20045;-70
2021/10/26 08:19:00;;;;;;;14.77;8.60;;;16.60;99.90;;;;;;5031468;28;20047;-71
2021/10/26 08:22:10;;;;;;;16.98;7.50;;;16.10;99.90;;;;;;5033886;28;20044;-71
2021/10/26 08:25:30;;;;;;;12.80;7.60;;;16.20;99.90;;;;;;5028048;28;20033;-70
2021/10/26 08:28:35;;;;;;;12.45;7.30;;;16.40;99.90;;;;;;5033233;28;20049;-70
2021/10/26 08:31:46;;;;;;;12.70;7.72;;;16.70;99.90;;;;;;5023505;28;20041;-71
2021/10/26 08:35:37;;;;;;;12.23;7.53;;;17.00;99.90;;;;;;5029606;28;20044;-70
2021/10/26 08:38:16;;;;;;;13.13;8.60;;;15.90;99.90;;;;;;5034654;28;20048;-70
2021/10/26 08:41:37;;;;;;;13.77;8.15;;;14.90;99.90;;;;;;5037844;28;20064;-70
2021/10/26 08:44:42;;;;;;;13.93;8.35;;;14.90;99.90;;;;;;5031232;28;20044;-70
2021/10/26 08:47:48;;;;;;;14.00;8.13;;;14.80;99.90;;;;;;5020456;28;20400;-70
2021/10/26 08:51:26;;;;;;;15.77;7.88;;;15.40;99.90;;;;;;5021261;28;20048;-70
2021/10/26 08:54:31;;;;;;;12.85;6.88;;;15.90;99.90;;;;;;5032315;28;20498;-70
2021/10/26 08:57:45;;;;;;;14.48;7.95;;;16.40;99.90;;;;;;5031092;28;20044;-70
2021/10/26 09:01:16;;;;;;;11.20;6.30;;;16.90;99.90;;;;;;5032073;28;20044;-70
2021/10/26 09:04:34;;;;;;;8.20;6.20;;;17.30;99.90;;;;;;5032744;28;20607;-70
2021/10/26 09:07:39;;;;;;;13.02;7.10;;;17.90;99.90;;;;;;5024747;28;20052;-70
2021/10/26 09:10:47;;;;;;;15.85;7.40;;;18.30;99.90;;;;;;5028321;28;20060;-70
2021/10/26 09:18:03;;;;;;;;;;;16.80;99.90;;;;;;5029067;28;20051;-70
2021/10/26 09:21:30;;;;;;;8.68;6.00;;;17.40;99.90;;;;;;5025183;28;19920;-71
2021/10/26 09:24:36;;;;;;;13.15;6.70;;;18.10;99.90;;;;;;5028565;28;20036;-70
2021/10/26 09:27:40;;;;;;;16.42;8.40;;;19.10;99.90;;;;;;5020942;28;20049;-70
2021/10/26 09:31:00;;;;;;;17.30;7.00;;;19.60;99.90;;;;;;5033295;28;20052;-70
2021/10/26 09:34:11;;;;;;;14.38;6.57;;;19.90;99.90;;;;;;5036847;28;20047;-71
2021/10/26 09:37:17;;;;;;;13.65;7.40;;;20.10;99.90;;;;;;5022739;28;20036;-70
2021/10/26 09:40:42;;;;;;;10.23;6.78;;;20.50;99.90;;;;;;5032422;28;20055;-71
2021/10/26 09:43:47;;;;;;;12.65;7.20;;;20.80;99.80;;;;;;5031775;28;20052;-71
2021/10/26 09:46:55;;;;;;;14.23;7.95;;;19.00;99.90;;;;;;5025805;28;20040;-71
2021/10/26 09:50:03;;;;;;;18.98;8.45;;;17.60;99.90;;;;;;5040896;28;20045;-70
2021/10/26 09:53:10;;;;;;;17.65;9.32;;;17.10;99.90;;;;;;5032674;28;20040;-70
2021/10/26 09:56:14;;;;;;;15.82;9.10;;;17.80;99.90;;;;;;5028684;28;20049;-70
2021/10/26 09:59:18;;;;;;;16.73;10.27;;;16.80;99.90;;;;;;5028236;28;20048;-70
2021/10/26 10:02:24;;;;;;;13.68;8.88;;;17.10;99.90;;;;;;5039892;28;20048;-70
2021/10/26 10:05:30;;;;;;;12.05;7.70;;;17.20;99.90;;;;;;5031272;28;20422;-70
2021/10/26 10:08:37;;;;;;;14.70;8.23;;;17.50;99.90;;;;;;5026310;28;20052;-70
2021/10/26 10:11:56;;;;;;;14.23;7.63;;;18.90;99.90;;;;;;5029589;28;20352;-70
2021/10/26 10:15:05;;;;;;;16.02;7.97;;;19.90;99.90;;;;;;5032542;28;20048;-71
2021/10/26 10:18:10;;;;;;;12.93;7.45;;;21.20;99.90;;;;;;5029143;28;20040;-71
2021/10/26 10:21:18;;;;;;;11.52;6.80;;;22.10;99.60;;;;;;5037326;28;20391;-71
2021/10/26 10:24:23;;;;;;;12.55;7.05;;;22.80;98.40;;;;;;5028576;28;20044;-70
2021/10/26 10:27:33;;;;;;;10.50;7.38;;;22.80;97.70;;;;;;5023840;28;20040;-70
2021/10/26 10:30:38;;;;;;;12.52;7.00;;;22.40;97.20;;;;;;5034651;28;20231;-71
2021/10/26 10:33:44;;;;;;;9.93;6.47;;;22.70;97.10;;;;;;5037433;28;20036;-71
2021/10/26 10:36:52;;;;;;;14.57;6.40;;;23.20;96.60;;;;;;5025010;28;20498;-71
2021/10/26 10:40:02;;;;;;;11.18;5.70;;;24.30;95.40;;;;;;5024158;28;20048;-71
2021/10/26 10:43:08;;;;;;;7.85;5.35;;;25.10;94.50;;;;;;5023813;28;20044;-71
2021/10/26 10:46:45;;;;;;;7.13;5.22;;;25.60;93.30;;;;;;5029552;28;20052;-71
2021/10/26 10:49:52;;;;;;;7.68;4.88;;;24.70;92.50;;;;;;5032107;28;20377;-71
2021/10/26 10:53:14;;;;;;;8.38;5.50;;;24.50;92.80;;;;;;5037622;28;20052;-72
2021/10/26 10:56:20;;;;;;;12.80;5.40;;;23.50;92.90;;;;;;5029004;28;20045;-71
2021/10/26 10:59:42;;;;;;;5.55;4.15;;;24.10;93.70;;;;;;5023097;28;20036;-71
2021/10/26 11:02:46;;;;;;;;;;;27.10;91.40;;;;;;5034176;28;20065;-71
2021/10/26 11:05:50;;;;;;;10.68;4.68;;;28.50;86.80;;;;;;5018136;28;19940;-71
2021/10/26 11:08:55;;;;;;;7.63;4.15;;;28.70;85.10;;;;;;5031128;28;20044;-70
2021/10/26 11:12:12;;;;;;;8.85;4.47;;;27.50;85.10;;;;;;5029339;28;20498;-71
2021/10/26 11:15:22;;;;;;;10.40;4.90;;;26.40;86.00;;;;;;5025747;28;20054;-71
2021/10/26 11:18:33;;;;;;;15.43;5.28;;;25.00;87.90;;;;;;5023176;28;20049;-71
2021/10/26 11:21:38;;;;;;;7.73;4.00;;;25.20;89.40;;;;;;5028935;28;20487;-71
2021/10/26 11:25:20;;;;;;;6.70;4.72;;;25.40;88.20;;;;;;5030543;28;20061;-71
2021/10/26 11:28:27;;;;;;;8.60;4.40;;;24.60;89.80;;;;;;5025599;28;20042;-71
2021/10/26 11:31:42;;;;;;;12.18;4.85;;;23.00;90.80;;;;;;5034858;28;20490;-71
2021/10/26 11:34:47;;;;;;;11.10;5.43;;;23.20;91.10;;;;;;5020843;28;20048;-71
2021/10/26 11:37:53;;;;;;;10.70;4.90;;;23.00;91.40;;;;;;5025221;28;20033;-71
2021/10/26 11:41:05;;;;;;;12.40;5.15;;;22.60;91.80;;;;;;5030931;28;20387;-71
2021/10/26 11:44:12;;;;;;;8.40;4.45;;;22.70;91.70;;;;;;5027024;28;20048;-70
2021/10/26 11:47:17;;;;;;;8.52;4.65;;;22.60;92.50;;;;;;5024514;28;20050;-71
2021/10/26 11:50:21;;;;;;;11.50;4.90;;;22.90;92.20;;;;;;5023487;28;20041;-70
2021/10/26 11:53:29;;;;;;;11.23;4.32;;;23.20;92.10;;;;;;5031155;28;20041;-71
2021/10/26 11:56:48;;;;;;;8.48;4.38;;;24.10;91.60;;;;;;5030151;28;20052;-71
2021/10/26 12:00:03;;;;;;;9.13;4.63;;;24.60;90.30;;;;;;5023305;28;21529;-71
2021/10/26 12:03:19;;;;;;;10.38;5.00;;;23.40;91.30;;;;;;5015076;28;20041;-71
2021/10/26 12:06:31;;;;;;;14.07;5.78;;;23.20;91.30;;;;;;5020577;28;20053;-70
2021/10/26 12:09:40;;;;;;;;;;;23.00;91.50;;;;;;5019939;28;20066;-71
2021/10/26 12:12:44;;;;;;;8.20;4.57;;;23.30;91.80;;;;;;5021505;28;19928;-71
2021/10/26 12:15:48;;;;;;;13.43;5.18;;;20.90;93.30;;;;;;5023367;28;20503;-70
2021/10/26 12:18:52;;;;;;;12.38;5.00;;;21.70;93.50;;;;;;5023325;28;20045;-70
2021/10/26 12:21:58;;;;;;;10.90;5.45;;;22.40;93.00;;;;;;5025309;28;20040;-70
2021/10/26 12:25:22;;;;;;;10.73;5.30;;;23.20;92.80;;;;;;5031529;28;20044;-70
2021/10/26 12:28:26;;;;;;;10.05;4.97;;;23.70;92.20;;;;;;5025957;28;20056;-70
2021/10/26 12:31:31;;;;;;;8.63;4.55;;;23.90;92.10;;;;;;5036165;28;20044;-70
2021/10/26 12:34:43;;;;;;;7.95;4.57;;;24.20;91.50;;;;;;5029238;28;20540;-70
2021/10/26 12:37:48;;;;;;;13.80;5.47;;;24.80;90.50;;;;;;5031426;28;20037;-70
2021/10/26 12:40:57;;;;;;;11.77;5.60;;;24.70;90.70;;;;;;5031642;28;20419;-70
2021/10/26 12:44:07;;;;;;;10.40;4.88;;;24.70;91.00;;;;;;5024414;28;20049;-70
2021/10/26 12:47:15;;;;;;;7.60;4.85;;;24.50;90.70;;;;;;5025794;28;20048;-71
2021/10/26 12:50:36;;;;;;;6.82;4.35;;;24.30;90.80;;;;;;5020822;28;20040;-71
2021/10/26 12:53:42;;;;;;;10.45;4.72;;;24.20;91.10;;;;;;5028484;28;20037;-71
2021/10/26 12:56:54;;;;;;;8.98;4.72;;;24.10;91.60;;;;;;5027144;28;20487;-71
2021/10/26 13:00:22;;;;;;;10.98;4.82;;;23.70;91.30;;;;;;5022682;28;20054;-70
2021/10/26 13:03:27;;;;;;;8.70;4.68;;;22.80;91.80;;;;;;5025459;28;20056;-70
2021/10/26 13:06:42;;;;;;;9.85;4.75;;;22.70;92.40;;;;;;5019977;28;20057;-71
2021/10/26 13:09:50;;;;;;;7.97;4.60;;;22.90;92.40;;;;;;5026137;28;20026;-70
2021/10/26 13:13:06;;;;;;;7.95;4.65;;;23.50;91.90;;;;;;5023632;28;20033;-71
2021/10/26 13:16:47;;;;;;;8.82;6.07;;;23.90;91.70;;;;;;5027903;28;20033;-71
2021/10/26 13:20:33;;;;;;;10.13;5.05;;;25.00;90.70;;;;;;5022774;28;20033;-71
2021/10/26 13:23:38;;;;;;;7.80;4.45;;;26.70;88.50;;;;;;5021037;28;20044;-71
2021/10/26 13:26:42;;;;;;;9.63;4.50;;;28.80;85.70;;;;;;5026218;28;20037;-71
2021/10/26 13:29:47;;;;;;;7.00;4.32;;;27.90;83.40;;;;;;5021800;28;20029;-71
2021/10/26 13:32:51;;;;;;;9.50;4.18;;;25.90;86.80;;;;;;5028730;28;20064;-71
2021/10/26 13:35:57;;;;;;;11.55;5.03;;;24.30;90.00;;;;;;5027536;28;20026;-70
2021/10/26 13:39:05;;;;;;;7.55;4.45;;;22.40;91.90;;;;;;5030948;28;20044;-70
2021/10/26 13:42:09;;;;;;;10.85;5.60;;;21.30;93.20;;;;;;5012742;28;20049;-70
2021/10/26 13:45:13;;;;;;;11.88;4.93;;;21.20;93.80;;;;;;5014457;28;20033;-70
2021/10/26 13:48:19;;;;;;;13.95;6.28;;;21.60;94.10;;;;;;5028632;28;20048;-70
2021/10/26 13:51:23;;;;;;;9.27;5.25;;;20.70;93.60;;;;;;5023081;28;20064;-70
2021/10/26 13:54:29;;;;;;;10.88;5.10;;;20.40;94.90;;;;;;5017314;28;20037;-70
2021/10/26 13:57:34;;;;;;;12.55;5.80;;;19.90;95.80;;;;;;5016451;28;20044;-70
2021/10/26 14:00:40;;;;;;;11.63;5.93;;;19.50;96.90;;;;;;5018116;28;20323;-70
2021/10/26 14:03:49;;;;;;;11.27;5.47;;;19.90;96.20;;;;;;5018548;28;20036;-70
2021/10/26 14:06:52;;;;;;;9.13;4.50;;;19.80;95.90;;;;;;5018572;28;20049;-70
2021/10/26 14:09:56;;;;;;;7.65;4.93;;;19.80;96.20;;;;;;5026561;28;20034;-70
2021/10/26 14:13:00;;;;;;;13.10;5.53;;;19.90;96.40;;;;;;5016921;28;20053;-70
2021/10/26 14:16:06;;;;;;;12.80;5.30;;;20.10;96.20;;;;;;5021683;28;20045;-70
2021/10/26 14:19:10;;;;;;;10.10;5.47;;;19.90;96.50;;;;;;5012471;28;20098;-70
2021/10/26 14:22:14;;;;;;;8.57;4.35;;;19.50;97.10;;;;;;5010961;28;20164;-71
2021/10/26 14:25:22;;;;;;;9.82;5.13;;;19.70;96.70;;;;;;5016207;28;20041;-70
2021/10/26 14:28:27;;;;;;;9.07;4.72;;;19.80;97.20;;;;;;5010982;28;20046;-70
2021/10/26 14:31:31;;;;;;;9.55;5.30;;;19.90;96.50;;;;;;5023712;28;20041;-70
2021/10/26 14:34:37;;;;;;;10.27;4.95;;;20.90;95.80;;;;;;5012061;28;20049;-70
2021/10/26 14:41:29;;;;;;;10.35;6.07;;;22.50;93.20;;;;;;5010677;28;20049;-70
2021/10/26 14:57:57;;;;;;;11.55;5.25;;;22.70;93.40;;;;;;5033668;28;20045;-71
2021/10/26 15:01:02;;;;;;;9.35;4.97;;;23.10;92.70;;;;;;5024622;28;20180;-70
2021/10/26 15:04:08;;;;;;;8.90;4.97;;;23.20;92.90;;;;;;5029339;28;20040;-70
2021/10/26 15:07:12;;;;;;;9.90;4.85;;;22.90;92.50;;;;;;5024787;28;20046;-71
2021/10/26 15:11:09;;;;;;;8.25;5.22;;;23.00;92.70;;;;;;5037109;28;20124;-71
2021/10/26 15:13:43;;;;;;;9.32;4.85;;;21.40;93.40;;;;;;5036757;28;20042;-70
2021/10/26 15:16:48;;;;;;;13.27;4.72;;;21.40;94.50;;;;;;5036493;28;20647;-70
2021/10/26 15:19:52;;;;;;;9.68;5.25;;;21.40;94.20;;;;;;5039280;28;20040;-70
2021/10/26 15:23:01;;;;;;;10.18;4.60;;;21.40;94.50;;;;;;5038091;28;20041;-71
2021/10/26 15:26:19;;;;;;;11.02;5.38;;;21.70;94.40;;;;;;5040985;28;20047;-70
2021/10/26 15:36:09;;;;;;;10.00;6.30;;;20.20;96.30;;;;;;5038848;28;20040;-70
2021/10/26 15:39:14;;;;;;;12.43;5.72;;;19.60;97.00;;;;;;5031829;28;20044;-70
2021/10/26 15:42:19;;;;;;;10.07;5.85;;;19.20;97.90;;;;;;5030141;28;20531;-70
2021/10/26 15:45:23;;;;;;;13.73;6.80;;;18.30;98.80;;;;;;5030403;28;20495;-70
2021/10/26 15:48:28;;;;;;;11.85;5.95;;;18.10;99.90;;;;;;5040683;28;20502;-70
2021/10/26 15:51:33;;;;;;;12.48;5.38;;;18.00;99.90;;;;;;5043245;28;20044;-70
2021/10/26 15:54:37;;;;;;;9.57;6.20;;;17.70;99.90;;;;;;5038301;28;20041;-70
2021/10/26 15:57:41;;;;;;;9.70;6.15;;;17.60;99.90;;;;;;5036684;28;20525;-70
2021/10/26 16:00:46;;;;;;;13.15;5.68;;;17.50;99.90;;;;;;5037715;28;20041;-70
2021/10/26 16:03:51;;;;;;;11.43;5.75;;;17.30;99.90;;;;;;5031449;28;20045;-70
2021/10/26 16:06:55;;;;;;;11.45;6.57;;;17.10;99.90;;;;;;5036096;28;20511;-70
2021/10/26 16:10:08;;;;;;;11.50;5.47;;;16.90;99.90;;;;;;5042161;28;20491;-70
2021/10/26 16:13:25;;;;;;;14.45;7.60;;;16.70;99.90;;;;;;5040935;28;20052;-70
2021/10/26 16:16:39;;;;;;;15.68;8.65;;;16.40;99.90;;;;;;5034887;28;20052;-70
2021/10/26 16:19:43;;;;;;;14.27;6.32;;;16.20;99.90;;;;;;5039546;28;20070;-70
2021/10/26 16:22:48;;;;;;;13.88;6.82;;;16.00;99.90;;;;;;5041855;28;20048;-70
2021/10/26 16:25:52;;;;;;;12.60;6.80;;;15.80;99.90;;;;;;5039582;28;20048;-69
2021/10/26 16:28:57;;;;;;;12.70;6.53;;;15.60;99.90;;;;;;5038354;28;20312;-70
2021/10/26 16:32:04;;;;;;;13.93;6.20;;;15.10;99.90;;;;;;5043163;28;20048;-69
2021/10/26 16:35:08;;;;;;;17.25;7.80;;;14.80;99.90;;;;;;5039164;28;20048;-70
2021/10/26 16:38:13;;;;;;;9.90;6.95;;;14.70;99.90;;;;;;5020982;28;20044;-70
2021/10/26 16:41:18;;;;;;;10.40;6.38;;;14.60;99.90;;;;;;5040527;28;20040;-70